Time;durP1;ratioP1;P1;durP2;ratioP2;P2;SDS_P1;SDS_P2;PMS_P1;PMS_P2;Temp;Humidity;BMP_temperature;BMP_pressure;BME280_temperature;BME280_humidity;BME280_pressure;Samples;Min_cycle;Max_cycle;Signal;HPM_P1;HPM_P2
2021/09/25 00:00:40;;;;;;;21.70;4.65;;;16.70;99.90;;;;;;4784304;29;20093;-87
2021/09/25 00:03:06;;;;;;;25.45;4.90;;;16.60;99.90;;;;;;4785341;29;20400;-86
2021/09/25 00:05:36;;;;;;;21.45;5.35;;;16.70;99.90;;;;;;4816560;29;20483;-87
2021/09/25 00:08:03;;;;;;;26.30;5.13;;;16.60;99.90;;;;;;4794697;29;20411;-86
2021/09/25 00:10:29;;;;;;;15.38;4.65;;;16.60;99.90;;;;;;4782171;29;20133;-87
2021/09/25 00:12:56;;;;;;;19.90;4.82;;;16.60;99.90;;;;;;4806474;29;20062;-87
2021/09/25 00:15:23;;;;;;;20.13;5.50;;;16.50;99.90;;;;;;4808020;29;20129;-90
2021/09/25 00:17:49;;;;;;;23.98;5.70;;;16.60;99.90;;;;;;4803872;29;20047;-86
2021/09/25 00:20:16;;;;;;;30.40;5.25;;;16.60;99.90;;;;;;4800971;29;20484;-86
2021/09/25 00:22:42;;;;;;;24.13;5.53;;;16.60;99.90;;;;;;4789522;29;20126;-87
2021/09/25 00:25:09;;;;;;;30.30;5.82;;;16.60;99.90;;;;;;4793069;29;20133;-86
2021/09/25 00:27:36;;;;;;;25.33;6.05;;;16.60;99.90;;;;;;4791926;29;20127;-86
2021/09/25 00:30:05;;;;;;;21.48;5.05;;;16.60;99.90;;;;;;4800937;29;20058;-86
2021/09/25 00:32:31;;;;;;;30.73;5.47;;;16.60;99.90;;;;;;4806701;29;20138;-87
2021/09/25 00:34:57;;;;;;;31.40;5.57;;;16.60;99.90;;;;;;4778026;29;20145;-88
2021/09/25 00:37:23;;;;;;;26.02;5.25;;;16.60;99.90;;;;;;4789782;29;20125;-90
2021/09/25 00:39:48;;;;;;;17.27;4.75;;;16.60;99.90;;;;;;4792253;29;20051;-86
2021/09/25 00:42:14;;;;;;;32.15;5.57;;;16.60;99.90;;;;;;4797574;29;20047;-86
2021/09/25 00:44:40;;;;;;;26.20;6.53;;;16.60;99.90;;;;;;4816939;29;20114;-87
2021/09/25 00:47:05;;;;;;;30.73;6.15;;;16.60;99.90;;;;;;4802347;29;20077;-86
2021/09/25 00:49:31;;;;;;;28.98;6.03;;;16.60;99.90;;;;;;4788886;29;20141;-88
2021/09/25 00:51:57;;;;;;;25.95;5.72;;;16.60;99.90;;;;;;4787289;29;20050;-86
2021/09/25 00:54:23;;;;;;;32.50;5.85;;;16.60;99.90;;;;;;4774866;29;20115;-87
2021/09/25 00:56:49;;;;;;;24.50;5.40;;;16.60;99.90;;;;;;4791251;29;20089;-86
2021/09/25 00:59:16;;;;;;;23.40;5.78;;;16.60;99.90;;;;;;4792878;29;20055;-86
2021/09/25 01:01:42;;;;;;;32.17;6.03;;;16.60;99.90;;;;;;4791894;29;20547;-86
2021/09/25 01:04:09;;;;;;;30.33;7.72;;;16.60;99.90;;;;;;4803064;29;20112;-86
2021/09/25 01:06:35;;;;;;;31.92;6.22;;;16.70;99.90;;;;;;4784047;29;20058;-86
2021/09/25 01:09:02;;;;;;;29.40;5.95;;;16.70;99.90;;;;;;4790169;29;20106;-87
2021/09/25 01:11:28;;;;;;;25.77;6.10;;;16.70;99.90;;;;;;4795434;29;20137;-90
2021/09/25 01:13:54;;;;;;;26.75;6.18;;;16.70;99.90;;;;;;4819714;29;20046;-86
2021/09/25 01:16:23;;;;;;;29.30;5.30;;;16.70;99.90;;;;;;4801924;29;20104;-87
2021/09/25 01:18:50;;;;;;;23.48;6.70;;;16.70;99.90;;;;;;4815794;29;20739;-87
2021/09/25 01:21:17;;;;;;;22.00;5.43;;;16.70;99.90;;;;;;4790282;29;20097;-87
2021/09/25 01:23:43;;;;;;;20.95;5.50;;;16.70;99.90;;;;;;4798811;29;20042;-86
2021/09/25 01:26:09;;;;;;;23.85;5.82;;;16.70;99.90;;;;;;4806407;29;20046;-87
2021/09/25 01:28:37;;;;;;;25.17;5.93;;;16.70;99.90;;;;;;4804447;29;20046;-86
2021/09/25 01:31:04;;;;;;;21.23;5.70;;;16.70;99.90;;;;;;4810575;29;20506;-86
2021/09/25 01:33:33;;;;;;;22.52;5.15;;;16.70;99.90;;;;;;4791706;29;20046;-89
2021/09/25 01:35:59;;;;;;;25.10;5.90;;;16.80;99.90;;;;;;4789197;29;20058;-88
2021/09/25 01:38:25;;;;;;;27.00;6.00;;;16.80;99.90;;;;;;4794657;29;20145;-88
2021/09/25 01:40:51;;;;;;;18.77;5.18;;;16.70;99.90;;;;;;4788679;29;20400;-90
2021/09/25 01:43:17;;;;;;;21.00;5.53;;;16.70;99.90;;;;;;4794311;29;20050;-87
2021/09/25 01:45:44;;;;;;;25.65;6.07;;;16.70;99.90;;;;;;4815378;29;20049;-87
2021/09/25 01:48:11;;;;;;;25.83;5.68;;;16.70;99.90;;;;;;4782418;29;20063;-86
2021/09/25 01:50:37;;;;;;;23.95;5.95;;;16.80;99.90;;;;;;4798258;29;20496;-87
2021/09/25 01:53:03;;;;;;;35.47;7.18;;;16.70;99.90;;;;;;4789914;29;20555;-88
2021/09/25 01:55:29;;;;;;;20.55;6.28;;;16.80;99.90;;;;;;4776531;29;20373;-88
2021/09/25 01:57:55;;;;;;;30.23;6.72;;;16.80;99.90;;;;;;4791323;29;20069;-87
2021/09/25 02:00:21;;;;;;;31.42;7.28;;;16.80;99.90;;;;;;4789680;29;20484;-87
2021/09/25 02:02:47;;;;;;;25.95;7.18;;;16.80;99.90;;;;;;4803035;29;20046;-87
2021/09/25 02:05:15;;;;;;;20.25;5.80;;;16.80;99.90;;;;;;4774293;29;20151;-87
2021/09/25 02:07:42;;;;;;;26.15;6.15;;;16.80;99.90;;;;;;4790411;29;20087;-86
2021/09/25 02:10:09;;;;;;;26.30;6.13;;;16.80;99.90;;;;;;4780837;29;20062;-86
2021/09/25 02:12:35;;;;;;;28.95;7.10;;;16.80;99.90;;;;;;4788080;29;20547;-89
2021/09/25 02:15:01;;;;;;;26.55;5.97;;;16.80;99.90;;;;;;4776143;29;20065;-86
2021/09/25 02:17:26;;;;;;;30.58;6.75;;;16.80;99.90;;;;;;4762383;29;20389;-86
2021/09/25 02:19:52;;;;;;;28.30;6.97;;;16.80;99.90;;;;;;4787074;29;20110;-86
2021/09/25 02:22:18;;;;;;;21.70;6.88;;;16.80;99.90;;;;;;4802525;29;20501;-85
2021/09/25 02:24:44;;;;;;;32.03;6.93;;;16.70;99.90;;;;;;4776979;29;20760;-88
2021/09/25 02:27:10;;;;;;;25.73;5.90;;;16.70;99.90;;;;;;4776073;29;20404;-86
2021/09/25 02:29:36;;;;;;;30.00;7.63;;;16.80;99.90;;;;;;4786964;29;20420;-90
2021/09/25 02:32:03;;;;;;;21.60;6.68;;;16.70;99.90;;;;;;4797019;29;20047;-87
2021/09/25 02:34:29;;;;;;;25.45;6.53;;;16.70;99.90;;;;;;4800081;29;20050;-86
2021/09/25 02:36:57;;;;;;;26.48;6.97;;;16.80;99.90;;;;;;4793075;29;20110;-86
2021/09/25 02:39:26;;;;;;;37.67;8.63;;;16.70;99.90;;;;;;4786639;29;20381;-89
2021/09/25 02:41:53;;;;;;;35.95;8.45;;;16.70;99.90;;;;;;4796090;29;20449;-88
2021/09/25 02:44:19;;;;;;;28.15;6.95;;;16.70;99.90;;;;;;4810608;29;20058;-87
2021/09/25 02:46:47;;;;;;;29.75;7.30;;;16.70;99.90;;;;;;4789864;29;20507;-87
2021/09/25 02:49:14;;;;;;;34.00;7.38;;;16.70;99.90;;;;;;4788325;29;20053;-87
2021/09/25 02:51:40;;;;;;;32.38;6.72;;;16.60;99.90;;;;;;4787309;29;20051;-88
2021/09/25 02:54:06;;;;;;;34.55;7.28;;;16.70;99.90;;;;;;4778758;29;20061;-87
2021/09/25 02:56:31;;;;;;;32.00;7.18;;;16.70;99.90;;;;;;4793491;29;20054;-87
2021/09/25 02:58:57;;;;;;;40.65;7.63;;;16.70;99.90;;;;;;4787550;29;20054;-87
2021/09/25 03:01:25;;;;;;;30.20;7.35;;;16.60;99.90;;;;;;4794207;29;20516;-87
2021/09/25 03:03:51;;;;;;;25.40;7.28;;;16.60;99.90;;;;;;4787652;29;20055;-88
2021/09/25 03:06:17;;;;;;;21.95;6.70;;;16.60;99.90;;;;;;4783915;29;20049;-88
2021/09/25 03:08:42;;;;;;;23.70;6.80;;;16.60;99.90;;;;;;4787791;29;20475;-87
2021/09/25 03:11:08;;;;;;;33.22;7.07;;;16.60;99.90;;;;;;4776598;29;20057;-87
2021/09/25 03:13:34;;;;;;;25.33;6.35;;;16.60;99.90;;;;;;4796283;29;20043;-87
2021/09/25 03:16:00;;;;;;;26.05;7.20;;;16.60;99.90;;;;;;4788264;29;20042;-87
2021/09/25 03:18:26;;;;;;;24.48;7.43;;;16.60;99.90;;;;;;4788869;29;20063;-87
2021/09/25 03:20:52;;;;;;;25.92;6.80;;;16.60;99.90;;;;;;4783678;29;20059;-87
2021/09/25 03:23:17;;;;;;;27.70;7.07;;;16.60;99.90;;;;;;4777386;29;20065;-88
2021/09/25 03:25:43;;;;;;;25.58;7.15;;;16.60;99.90;;;;;;4793726;29;20054;-88
2021/09/25 03:28:09;;;;;;;23.65;6.90;;;16.60;99.90;;;;;;4787911;29;20119;-87
2021/09/25 03:30:35;;;;;;;26.33;7.18;;;16.60;99.90;;;;;;4788331;29;20051;-87
2021/09/25 03:33:00;;;;;;;25.17;6.95;;;16.60;99.90;;;;;;4795593;29;20154;-88
2021/09/25 03:35:26;;;;;;;26.10;6.63;;;16.60;99.90;;;;;;4786838;29;20484;-87
2021/09/25 03:37:52;;;;;;;26.77;6.65;;;16.60;99.90;;;;;;4787404;29;20509;-88
2021/09/25 03:40:18;;;;;;;30.17;6.07;;;16.60;99.90;;;;;;4791980;29;20051;-87
2021/09/25 03:42:44;;;;;;;21.52;6.80;;;16.60;99.90;;;;;;4794124;29;20050;-89
2021/09/25 03:45:10;;;;;;;29.20;6.60;;;16.60;99.90;;;;;;4797434;29;20046;-87
2021/09/25 03:47:35;;;;;;;25.23;6.80;;;16.60;99.90;;;;;;4795082;29;20057;-86
2021/09/25 03:50:02;;;;;;;23.33;6.20;;;16.60;99.90;;;;;;4818712;29;20051;-86
2021/09/25 03:52:28;;;;;;;26.33;7.10;;;16.60;99.90;;;;;;4791732;29;20159;-87
2021/09/25 03:54:54;;;;;;;27.25;6.82;;;16.60;99.90;;;;;;4791957;29;20112;-88
2021/09/25 03:57:19;;;;;;;21.10;7.20;;;16.60;99.90;;;;;;4795312;29;20123;-88
2021/09/25 03:59:45;;;;;;;29.98;6.28;;;16.60;99.90;;;;;;4811703;29;20058;-88
2021/09/25 04:02:11;;;;;;;34.30;6.28;;;16.60;99.90;;;;;;4796717;29;20082;-88
2021/09/25 04:04:36;;;;;;;19.67;5.68;;;16.60;99.90;;;;;;4812391;29;20053;-88
2021/09/25 04:07:02;;;;;;;21.73;5.72;;;16.60;99.90;;;;;;4777418;29;20052;-87
2021/09/25 04:09:28;;;;;;;28.98;7.00;;;16.60;99.90;;;;;;4788266;29;20117;-87
2021/09/25 04:11:54;;;;;;;22.05;6.28;;;16.70;99.90;;;;;;4790196;29;20466;-87
2021/09/25 04:14:20;;;;;;;25.13;5.85;;;16.70;99.90;;;;;;4791796;29;20061;-88
2021/09/25 04:16:47;;;;;;;26.50;5.93;;;16.70;99.90;;;;;;4784208;29;20142;-91
2021/09/25 04:19:13;;;;;;;21.30;5.72;;;16.70;99.90;;;;;;4793033;29;20051;-86
2021/09/25 04:21:39;;;;;;;22.35;5.57;;;16.70;99.90;;;;;;4787023;29;20043;-87
2021/09/25 04:24:05;;;;;;;20.60;5.82;;;16.70;99.90;;;;;;4819151;29;20503;-87
2021/09/25 04:26:31;;;;;;;26.67;6.10;;;16.70;99.90;;;;;;4801556;29;20050;-87
2021/09/25 04:28:57;;;;;;;32.00;6.68;;;16.70;99.90;;;;;;4812303;29;20462;-87
2021/09/25 04:31:24;;;;;;;25.40;5.80;;;16.70;99.90;;;;;;4778577;29;20087;-87
2021/09/25 04:33:50;;;;;;;24.85;6.10;;;16.70;99.90;;;;;;4806348;29;20049;-87
2021/09/25 04:36:15;;;;;;;26.23;5.50;;;16.70;99.90;;;;;;4779096;29;20067;-87
2021/09/25 04:38:41;;;;;;;25.38;6.00;;;16.70;99.90;;;;;;4775268;29;20066;-87
2021/09/25 04:41:07;;;;;;;17.95;5.65;;;16.70;99.90;;;;;;4792742;29;20056;-88
2021/09/25 04:43:34;;;;;;;30.65;5.70;;;16.70;99.90;;;;;;4792832;29;20051;-87
2021/09/25 04:45:59;;;;;;;21.23;5.50;;;16.70;99.90;;;;;;4819572;29;20111;-88
2021/09/25 04:48:25;;;;;;;40.20;6.95;;;16.70;99.90;;;;;;4794113;29;20050;-87
2021/09/25 04:50:51;;;;;;;25.25;5.80;;;16.70;99.90;;;;;;4783200;29;20054;-87
2021/09/25 04:53:17;;;;;;;21.77;5.68;;;16.70;99.90;;;;;;4804427;29;20070;-87
2021/09/25 04:55:44;;;;;;;24.77;5.63;;;16.70;99.90;;;;;;4799874;29;20108;-86
2021/09/25 04:58:10;;;;;;;20.30;6.28;;;16.70;99.90;;;;;;4801109;29;20050;-87
2021/09/25 05:00:37;;;;;;;27.77;5.65;;;16.70;99.90;;;;;;4802135;29;20133;-87
2021/09/25 05:03:02;;;;;;;21.80;5.60;;;16.70;99.90;;;;;;4789491;29;20129;-87
2021/09/25 05:05:28;;;;;;;28.42;5.95;;;16.70;99.90;;;;;;4794283;29;20130;-87
2021/09/25 05:07:54;;;;;;;30.35;5.50;;;16.70;99.90;;;;;;4782770;29;20058;-86
2021/09/25 05:10:20;;;;;;;27.88;5.63;;;16.70;99.90;;;;;;4801643;29;20058;-87
2021/09/25 05:12:46;;;;;;;24.15;6.13;;;16.70;99.90;;;;;;4788689;29;20047;-87
2021/09/25 05:15:12;;;;;;;26.80;5.65;;;16.70;99.90;;;;;;4813994;29;20124;-86
2021/09/25 05:17:38;;;;;;;25.88;6.00;;;16.70;99.90;;;;;;4792067;29;20058;-87
2021/09/25 05:20:06;;;;;;;29.67;6.30;;;16.80;99.90;;;;;;4788374;29;20050;-86
2021/09/25 05:22:33;;;;;;;31.38;5.85;;;16.70;99.90;;;;;;4778168;29;20496;-86
2021/09/25 05:24:59;;;;;;;29.35;6.20;;;16.70;99.90;;;;;;4788799;29;20050;-86
2021/09/25 05:27:25;;;;;;;25.77;6.40;;;16.80;99.90;;;;;;4789574;29;20098;-86
2021/09/25 05:29:50;;;;;;;29.60;6.55;;;16.80;99.90;;;;;;4821335;29;20054;-89
2021/09/25 05:32:16;;;;;;;34.63;7.13;;;16.80;99.90;;;;;;4781642;29;20046;-86
2021/09/25 05:34:42;;;;;;;23.30;5.70;;;16.80;99.90;;;;;;4790024;29;20464;-87
2021/09/25 05:37:09;;;;;;;21.20;5.80;;;16.80;99.90;;;;;;4791161;29;20065;-86
2021/09/25 05:39:35;;;;;;;22.63;6.32;;;16.80;99.90;;;;;;4779517;29;20097;-86
2021/09/25 05:42:01;;;;;;;30.17;6.60;;;16.70;99.90;;;;;;4799427;29;20112;-86
2021/09/25 05:44:27;;;;;;;22.00;6.00;;;16.80;99.90;;;;;;4773969;29;20054;-86
2021/09/25 05:46:52;;;;;;;29.10;6.10;;;16.80;99.90;;;;;;4788399;29;20047;-89
2021/09/25 05:49:18;;;;;;;25.98;6.00;;;16.80;99.90;;;;;;4798838;29;20392;-86
2021/09/25 05:51:44;;;;;;;26.23;5.80;;;16.80;99.90;;;;;;4801224;29;20495;-86
2021/09/25 05:54:10;;;;;;;24.77;6.25;;;16.80;99.90;;;;;;4794512;29;20110;-90
2021/09/25 05:56:35;;;;;;;25.05;5.97;;;16.80;99.90;;;;;;4792902;29;20054;-89
2021/09/25 05:59:01;;;;;;;26.98;5.47;;;16.80;99.90;;;;;;4793778;29;20054;-88
2021/09/25 06:01:27;;;;;;;24.80;5.72;;;16.80;99.90;;;;;;4801846;29;20051;-88
2021/09/25 06:03:52;;;;;;;27.67;6.22;;;16.80;99.90;;;;;;4784468;29;20052;-90
2021/09/25 06:06:18;;;;;;;19.45;5.47;;;16.90;99.90;;;;;;4794256;29;20046;-88
2021/09/25 06:08:44;;;;;;;21.85;6.88;;;16.90;99.90;;;;;;4771445;29;20484;-89
2021/09/25 06:11:09;;;;;;;23.85;7.00;;;16.90;99.90;;;;;;4757570;29;20055;-89
2021/09/25 06:13:35;;;;;;;29.25;8.05;;;16.90;99.90;;;;;;4785950;29;20396;-89
2021/09/25 06:16:01;;;;;;;22.63;6.72;;;16.90;99.90;;;;;;4790099;29;20066;-89
2021/09/25 06:18:26;;;;;;;26.08;6.68;;;16.90;99.90;;;;;;4790367;29;20058;-89
2021/09/25 06:20:52;;;;;;;23.05;7.10;;;17.00;99.90;;;;;;4774834;29;20492;-89
2021/09/25 06:23:18;;;;;;;31.27;6.22;;;17.00;99.90;;;;;;4775739;29;20047;-88
2021/09/25 06:25:43;;;;;;;21.90;6.30;;;17.00;99.90;;;;;;4821155;29;20133;-89
2021/09/25 06:28:09;;;;;;;28.48;6.60;;;17.00;99.90;;;;;;4804798;29;20054;-89
2021/09/25 06:30:40;;;;;;;23.48;6.90;;;17.00;99.90;;;;;;4790972;29;20094;-88
2021/09/25 06:33:08;;;;;;;21.17;6.47;;;17.00;99.90;;;;;;4803845;29;20084;-89
2021/09/25 06:35:33;;;;;;;30.02;7.07;;;17.10;99.90;;;;;;4791890;29;20111;-90
2021/09/25 06:37:59;;;;;;;32.72;7.28;;;17.10;99.90;;;;;;4786664;29;20062;-90
2021/09/25 06:40:25;;;;;;;24.17;6.47;;;17.10;99.90;;;;;;4781754;29;20060;-89
2021/09/25 06:42:51;;;;;;;35.72;7.45;;;17.10;99.90;;;;;;4790604;29;20056;-89
2021/09/25 06:45:16;;;;;;;21.63;6.57;;;17.10;99.90;;;;;;4791663;29;20046;-90
2021/09/25 06:47:42;;;;;;;33.97;7.57;;;17.10;99.90;;;;;;4791023;29;20100;-88
2021/09/25 06:50:08;;;;;;;20.92;6.15;;;17.20;99.90;;;;;;4788237;29;20054;-90
2021/09/25 06:52:34;;;;;;;20.77;6.15;;;17.20;99.90;;;;;;4798092;29;20124;-92
2021/09/25 06:55:01;;;;;;;22.38;6.03;;;17.20;99.90;;;;;;4777558;29;20054;-90
2021/09/25 06:57:29;;;;;;;30.50;8.10;;;17.20;99.90;;;;;;4787118;29;20513;-91
2021/09/25 06:59:55;;;;;;;28.25;6.80;;;17.30;99.90;;;;;;4777161;29;20969;-89
2021/09/25 07:02:21;;;;;;;31.25;6.93;;;17.30;99.90;;;;;;4775055;29;20060;-90
2021/09/25 07:04:46;;;;;;;19.67;6.28;;;17.30;99.90;;;;;;4778785;29;20047;-88
2021/09/25 07:07:12;;;;;;;26.73;6.72;;;17.30;99.90;;;;;;4785110;29;20046;-89
2021/09/25 07:09:41;;;;;;;25.63;6.18;;;17.40;99.90;;;;;;4787991;29;20050;-89
2021/09/25 07:12:08;;;;;;;24.98;6.78;;;17.40;99.90;;;;;;4785034;29;20058;-88
2021/09/25 07:14:34;;;;;;;19.65;6.30;;;17.50;99.90;;;;;;4787929;29;20384;-89
2021/09/25 07:16:59;;;;;;;22.92;6.22;;;17.50;99.90;;;;;;4787098;29;20071;-89
2021/09/25 07:19:25;;;;;;;20.73;7.05;;;17.50;99.90;;;;;;4792639;29;20050;-89
2021/09/25 07:21:51;;;;;;;23.85;7.03;;;17.60;99.90;;;;;;4772350;29;20066;-89
2021/09/25 07:24:16;;;;;;;19.80;6.50;;;17.60;99.90;;;;;;4788347;29;20047;-91
2021/09/25 07:26:42;;;;;;;25.90;6.90;;;17.70;99.90;;;;;;4771609;29;20547;-91
2021/09/25 07:29:08;;;;;;;27.65;6.30;;;17.70;99.90;;;;;;4772553;29;20058;-91
2021/09/25 07:31:33;;;;;;;26.52;7.30;;;17.70;99.90;;;;;;4780082;29;20043;-90
2021/09/25 07:33:59;;;;;;;27.90;7.75;;;17.70;99.90;;;;;;4790297;29;20089;-91
2021/09/25 07:36:27;;;;;;;28.85;7.60;;;17.80;99.90;;;;;;4786026;29;20266;-90
2021/09/25 07:38:55;;;;;;;22.17;6.78;;;17.80;99.90;;;;;;4771149;29;20055;-91
2021/09/25 07:41:23;;;;;;;22.95;7.20;;;17.90;99.90;;;;;;4795584;29;20085;-91
2021/09/25 07:43:49;;;;;;;25.55;6.80;;;17.90;99.90;;;;;;4765912;29;20395;-90
2021/09/25 07:46:14;;;;;;;33.50;6.53;;;18.00;99.90;;;;;;4770105;29;20055;-90
2021/09/25 07:48:40;;;;;;;26.65;7.07;;;18.00;99.90;;;;;;4771135;29;20051;-90
2021/09/25 07:51:06;;;;;;;35.75;7.20;;;18.10;99.90;;;;;;4771632;29;20111;-90
2021/09/25 07:53:31;;;;;;;29.15;6.38;;;18.10;99.90;;;;;;4789530;29;20054;-91
2021/09/25 07:55:57;;;;;;;25.33;6.47;;;18.20;99.90;;;;;;4771984;29;20086;-90
2021/09/25 07:58:23;;;;;;;27.10;7.50;;;18.20;99.90;;;;;;4786365;29;20042;-90
2021/09/25 08:00:51;;;;;;;21.77;6.30;;;18.20;99.90;;;;;;4777873;29;20050;-89
2021/09/25 08:03:19;;;;;;;23.77;7.00;;;18.30;99.90;;;;;;4776988;29;20176;-90
2021/09/25 08:05:45;;;;;;;25.67;6.97;;;18.40;99.90;;;;;;4787227;29;20500;-90
2021/09/25 08:08:11;;;;;;;19.85;6.75;;;18.50;99.90;;;;;;4795264;29;20051;-89
2021/09/25 08:10:37;;;;;;;16.80;6.10;;;18.60;99.90;;;;;;4771575;29;20481;-90
2021/09/25 08:13:03;;;;;;;22.05;6.53;;;18.60;99.90;;;;;;4770161;29;20099;-90
2021/09/25 08:15:29;;;;;;;22.58;6.10;;;18.70;99.90;;;;;;4768688;29;20047;-90
2021/09/25 08:17:55;;;;;;;21.95;6.78;;;18.70;99.90;;;;;;4774269;29;20742;-89
2021/09/25 08:20:23;;;;;;;19.23;6.18;;;18.80;99.90;;;;;;4774698;29;20065;-90
2021/09/25 08:22:50;;;;;;;14.55;5.13;;;18.90;99.90;;;;;;4790676;29;20066;-90
2021/09/25 08:25:17;;;;;;;22.98;6.18;;;18.90;99.90;;;;;;4793213;29;20062;-90
2021/09/25 08:27:43;;;;;;;18.65;5.75;;;19.00;99.90;;;;;;4777138;29;20053;-90
2021/09/25 08:30:10;;;;;;;25.10;6.93;;;19.10;99.90;;;;;;4777749;29;20066;-89
2021/09/25 08:32:36;;;;;;;20.20;6.00;;;19.30;99.90;;;;;;4777179;29;20090;-90
2021/09/25 08:35:05;;;;;;;18.75;5.88;;;19.30;99.90;;;;;;4789132;29;20143;-90
2021/09/25 08:37:31;;;;;;;23.87;6.03;;;19.40;99.90;;;;;;4789639;29;20695;-90
2021/09/25 08:39:56;;;;;;;18.45;5.13;;;19.40;99.90;;;;;;4787457;29;20067;-90
2021/09/25 08:42:22;;;;;;;20.35;5.20;;;19.30;99.90;;;;;;4776050;29;20042;-90
2021/09/25 08:44:51;;;;;;;20.70;5.72;;;19.30;99.90;;;;;;4785940;29;20119;-90
2021/09/25 08:47:19;;;;;;;15.70;5.43;;;19.40;99.90;;;;;;4795223;29;20062;-90
2021/09/25 08:49:46;;;;;;;13.15;4.95;;;19.50;99.90;;;;;;4777972;29;20054;-90
2021/09/25 08:52:11;;;;;;;25.98;6.80;;;19.60;99.90;;;;;;4779471;29;20066;-90
2021/09/25 08:54:37;;;;;;;15.88;4.85;;;19.70;99.90;;;;;;4773378;29;20065;-91
2021/09/25 08:57:04;;;;;;;12.77;4.90;;;19.70;99.90;;;;;;4774340;29;20047;-90
2021/09/25 08:59:30;;;;;;;15.63;5.18;;;19.70;99.90;;;;;;4774239;29;20076;-91
2021/09/25 09:02:08;;;;;;;18.83;5.85;;;19.70;99.90;;;;;;4795561;29;20055;-90
2021/09/25 09:05:00;;;;;;;22.88;4.68;;;19.80;99.90;;;;;;4791307;29;20057;-90
2021/09/25 09:07:28;;;;;;;17.98;5.68;;;19.90;99.90;;;;;;4785531;29;20412;-90
2021/09/25 09:09:54;;;;;;;14.98;4.68;;;20.00;99.90;;;;;;4789047;29;20075;-89
2021/09/25 09:12:24;;;;;;;19.10;4.35;;;20.00;99.90;;;;;;4800223;29;20042;-90
2021/09/25 09:14:52;;;;;;;18.25;4.25;;;20.10;99.90;;;;;;4801573;29;20042;-90
2021/09/25 09:17:24;;;;;;;12.18;4.07;;;20.10;99.90;;;;;;4790590;29;20053;-90
2021/09/25 09:19:49;;;;;;;11.48;3.83;;;20.20;99.90;;;;;;4789781;29;20049;-89
2021/09/25 09:22:21;;;;;;;17.63;4.38;;;20.30;99.90;;;;;;4790758;29;20050;-89
2021/09/25 09:24:50;;;;;;;11.40;3.67;;;20.40;99.90;;;;;;4788832;29;20051;-91
2021/09/25 09:27:21;;;;;;;15.10;4.47;;;20.40;99.90;;;;;;4805657;29;20555;-90
2021/09/25 09:29:47;;;;;;;10.00;3.47;;;20.30;99.90;;;;;;4784624;29;20107;-90
2021/09/25 09:32:13;;;;;;;9.25;3.53;;;20.40;99.90;;;;;;4803264;29;20062;-91
2021/09/25 09:34:41;;;;;;;10.75;3.25;;;20.50;99.90;;;;;;4792821;29;20054;-90
2021/09/25 09:37:15;;;;;;;16.10;4.32;;;20.60;99.90;;;;;;4803180;29;20055;-91
2021/09/25 09:39:41;;;;;;;13.40;3.75;;;20.60;99.90;;;;;;4796166;29;20055;-89
2021/09/25 09:42:06;;;;;;;12.45;3.50;;;20.60;99.90;;;;;;4788354;29;20453;-90
2021/09/25 09:44:33;;;;;;;8.40;3.20;;;20.70;99.90;;;;;;4792765;29;20065;-90
2021/09/25 09:47:02;;;;;;;14.25;3.33;;;20.70;99.90;;;;;;4795341;29;20142;-87
2021/09/25 09:49:30;;;;;;;11.40;3.25;;;20.70;99.90;;;;;;4786692;29;20054;-90
2021/09/25 09:52:08;;;;;;;13.95;2.42;;;20.60;99.90;;;;;;4800389;29;20145;-90
2021/09/25 09:54:43;;;;;;;14.70;3.25;;;20.70;99.90;;;;;;4781407;29;20103;-91
2021/09/25 09:57:16;;;;;;;9.18;2.42;;;20.70;99.90;;;;;;4779743;29;20062;-90
2021/09/25 09:59:42;;;;;;;14.15;3.35;;;20.70;99.90;;;;;;4787560;29;20050;-90
2021/09/25 10:02:08;;;;;;;13.50;2.88;;;20.70;99.90;;;;;;4790055;29;20255;-90
2021/09/25 10:04:35;;;;;;;7.13;2.17;;;20.80;99.90;;;;;;4789615;29;20468;-89
2021/09/25 10:07:01;;;;;;;8.68;2.55;;;20.80;99.90;;;;;;4787196;29;20062;-89
2021/09/25 10:09:29;;;;;;;9.00;2.50;;;20.90;99.90;;;;;;4776158;29;20046;-89
2021/09/25 10:11:59;;;;;;;10.10;2.42;;;20.90;99.90;;;;;;4798351;29;20110;-89
2021/09/25 10:14:27;;;;;;;8.02;2.45;;;20.90;99.90;;;;;;4796986;29;20054;-89
2021/09/25 10:16:55;;;;;;;7.95;2.25;;;21.00;99.90;;;;;;4805481;29;20146;-89
2021/09/25 10:19:27;;;;;;;6.10;2.63;;;20.90;99.90;;;;;;4794055;29;20051;-89
2021/09/25 10:22:00;;;;;;;7.75;2.20;;;21.00;99.90;;;;;;4796238;29;20551;-88
2021/09/25 10:24:31;;;;;;;7.00;2.58;;;21.10;99.90;;;;;;4785276;29;20495;-90
2021/09/25 10:27:00;;;;;;;7.32;2.17;;;21.20;99.90;;;;;;4796572;29;20090;-89
2021/09/25 10:29:27;;;;;;;6.22;2.15;;;21.20;99.90;;;;;;4795615;29;20476;-89
2021/09/25 10:32:19;;;;;;;10.23;2.50;;;21.30;99.90;;;;;;4788982;29;20061;-89
2021/09/25 10:34:57;;;;;;;14.93;3.35;;;21.30;99.90;;;;;;4799157;29;20046;-89
2021/09/25 10:37:22;;;;;;;6.20;1.85;;;21.50;99.90;;;;;;4786837;29;20062;-89
2021/09/25 10:39:57;;;;;;;8.98;2.33;;;21.70;99.90;;;;;;4789346;29;20054;-88
2021/09/25 10:42:39;;;;;;;11.02;1.77;;;21.80;99.90;;;;;;4785767;29;20047;-89
2021/09/25 10:45:12;;;;;;;5.47;1.63;;;21.90;99.90;;;;;;4801632;29;20408;-89
2021/09/25 10:47:38;;;;;;;6.07;1.45;;;22.00;99.90;;;;;;4772366;29;20123;-88
2021/09/25 10:50:12;;;;;;;10.82;1.60;;;22.00;99.90;;;;;;4771184;29;20163;-88
2021/09/25 10:52:49;;;;;;;12.82;2.30;;;22.10;99.90;;;;;;4787343;29;20078;-88
2021/09/25 10:55:26;;;;;;;4.38;1.67;;;22.10;99.90;;;;;;4786543;29;20491;-88
2021/09/25 10:58:12;;;;;;;5.00;1.20;;;22.10;99.90;;;;;;4789895;29;20046;-89
2021/09/25 11:00:56;;;;;;;7.90;1.70;;;22.00;99.90;;;;;;4812467;29;20054;-87
2021/09/25 11:03:42;;;;;;;5.28;1.98;;;22.10;99.90;;;;;;4792657;29;20068;-86
2021/09/25 11:06:11;;;;;;;5.45;1.40;;;22.10;99.90;;;;;;4803603;29;20571;-89
2021/09/25 11:08:48;;;;;;;11.65;1.92;;;22.00;99.90;;;;;;4791654;29;20058;-88
2021/09/25 11:11:16;;;;;;;9.80;1.88;;;22.20;99.90;;;;;;4796889;29;20381;-88
2021/09/25 11:14:00;;;;;;;6.60;1.77;;;22.30;99.90;;;;;;4773636;29;20066;-89
2021/09/25 11:16:57;;;;;;;5.50;1.65;;;22.40;99.90;;;;;;4809545;29;20608;-88
2021/09/25 11:19:25;;;;;;;11.05;1.52;;;22.20;99.90;;;;;;4791766;29;20111;-89
2021/09/25 11:22:11;;;;;;;4.47;1.65;;;22.40;99.90;;;;;;4786887;29;20050;-91
2021/09/25 11:24:46;;;;;;;11.05;2.10;;;22.50;99.90;;;;;;4784848;29;20574;-90
2021/09/25 11:27:21;;;;;;;4.63;1.50;;;22.50;99.90;;;;;;4790379;29;20050;-91
2021/09/25 11:30:08;;;;;;;4.78;1.50;;;22.50;99.90;;;;;;4771292;29;20121;-90
2021/09/25 11:32:36;;;;;;;9.63;2.28;;;22.60;99.90;;;;;;4786834;29;20059;-91
2021/09/25 11:35:06;;;;;;;4.50;1.33;;;22.70;99.90;;;;;;4786480;29;20126;-90
2021/09/25 11:37:32;;;;;;;5.57;1.42;;;22.70;99.90;;;;;;4787311;29;20062;-90
2021/09/25 11:39:58;;;;;;;8.65;1.50;;;22.70;99.90;;;;;;4798045;29;20059;-90
2021/09/25 11:42:27;;;;;;;3.45;1.05;;;22.70;99.90;;;;;;4776996;29;20055;-91
2021/09/25 11:45:05;;;;;;;8.10;1.57;;;22.80;99.90;;;;;;4772413;29;20157;-91
2021/09/25 11:47:43;;;;;;;6.47;1.20;;;22.70;99.90;;;;;;4793067;29;20489;-90
2021/09/25 11:50:12;;;;;;;4.60;1.70;;;22.80;99.90;;;;;;4785231;29;20082;-90
2021/09/25 11:52:39;;;;;;;5.38;1.52;;;22.80;99.90;;;;;;4776337;29;20041;-90
2021/09/25 11:55:07;;;;;;;6.63;1.65;;;22.60;99.90;;;;;;4787242;29;20071;-90
2021/09/25 11:57:33;;;;;;;4.85;1.20;;;22.70;99.90;;;;;;4789284;29;20111;-89
2021/09/25 11:59:59;;;;;;;4.28;1.70;;;22.80;99.90;;;;;;4790771;29;20078;-90
2021/09/25 12:02:39;;;;;;;7.65;1.73;;;22.90;99.90;;;;;;4795827;29;20138;-90
2021/09/25 12:05:07;;;;;;;7.38;1.25;;;23.00;99.90;;;;;;4775187;29;20106;-90
2021/09/25 12:07:40;;;;;;;5.07;1.58;;;23.10;99.90;;;;;;4791116;29;20051;-89
2021/09/25 12:10:06;;;;;;;9.40;1.60;;;23.10;99.90;;;;;;4792233;29;20512;-90
2021/09/25 12:12:33;;;;;;;8.57;2.08;;;23.00;99.90;;;;;;4776873;29;20478;-90
2021/09/25 12:14:59;;;;;;;2.60;1.20;;;23.00;99.90;;;;;;4808479;29;20058;-90
2021/09/25 12:17:26;;;;;;;7.13;1.60;;;23.00;99.90;;;;;;4811653;29;20061;-90
2021/09/25 12:19:51;;;;;;;6.35;1.70;;;22.80;99.90;;;;;;4783679;29;20073;-90
2021/09/25 12:22:23;;;;;;;46.22;2.65;;;22.80;99.90;;;;;;4792580;29;20384;-90
2021/09/25 12:24:50;;;;;;;7.75;1.50;;;22.80;99.90;;;;;;4797599;29;20058;-90
2021/09/25 12:27:28;;;;;;;8.35;1.80;;;22.70;99.90;;;;;;4787638;29;20061;-90
2021/09/25 12:29:54;;;;;;;6.40;1.60;;;22.70;99.90;;;;;;4806015;29;20125;-90
2021/09/25 12:32:21;;;;;;;7.05;1.45;;;22.60;99.90;;;;;;4785174;29;20133;-89
2021/09/25 12:34:49;;;;;;;5.65;1.30;;;22.60;99.90;;;;;;4796634;29;20115;-89
2021/09/25 12:37:15;;;;;;;4.22;1.35;;;22.50;99.90;;;;;;4791864;29;20061;-89
2021/09/25 12:39:44;;;;;;;5.65;1.25;;;22.50;99.90;;;;;;4817456;29;20515;-89